Time;durP1;ratioP1;P1;durP2;ratioP2;P2;SDS_P1;SDS_P2;PMS_P1;PMS_P2;Temp;Humidity;BMP_temperature;BMP_pressure;BME280_temperature;BME280_humidity;BME280_pressure;Samples;Min_cycle;Max_cycle;Signal;HPM_P1;HPM_P2
2021/06/04 00:00:49;;;;;;;36.35;21.88;;;20.10;99.90;;;;;;4148272;28;20181;-88
2021/06/04 00:02:51;;;;;;;44.55;22.55;;;20.30;99.90;;;;;;4148271;28;20200;-87
2021/06/04 00:04:52;;;;;;;47.70;23.50;;;20.20;99.90;;;;;;4164711;28;20230;-87
2021/06/04 00:06:53;;;;;;;36.40;23.80;;;20.00;99.90;;;;;;4148310;28;20180;-87
2021/06/04 00:08:54;;;;;;;40.83;23.38;;;19.40;99.90;;;;;;4148233;28;20177;-88
2021/06/04 00:11:03;;;;;;;38.10;24.00;;;19.10;99.90;;;;;;4164477;28;20644;-87
2021/06/04 00:13:15;;;;;;;41.78;23.73;;;19.00;99.90;;;;;;4148327;28;20168;-87
2021/06/04 00:15:22;;;;;;;38.17;23.27;;;18.90;99.90;;;;;;4151070;28;20183;-87
2021/06/04 00:17:23;;;;;;;38.28;22.95;;;18.90;99.90;;;;;;4151552;28;20176;-88
2021/06/04 00:19:28;;;;;;;42.33;22.52;;;18.80;99.90;;;;;;4151796;28;20177;-92
2021/06/04 00:21:33;;;;;;;35.97;21.73;;;19.40;99.90;;;;;;4151364;28;20197;-87
2021/06/04 00:23:34;;;;;;;35.88;21.85;;;19.00;99.90;;;;;;4151383;28;20548;-87
2021/06/04 00:25:36;;;;;;;38.58;22.25;;;19.50;99.90;;;;;;4167836;28;20220;-87
2021/06/04 00:27:37;;;;;;;47.13;23.48;;;20.00;99.90;;;;;;4151434;28;20176;-88
2021/06/04 00:29:39;;;;;;;39.13;23.20;;;20.10;99.90;;;;;;4167617;28;20548;-90
2021/06/04 00:31:41;;;;;;;40.35;22.77;;;20.00;99.90;;;;;;4151151;28;20688;-88
2021/06/04 00:33:43;;;;;;;35.38;21.98;;;19.60;99.90;;;;;;4151347;28;20168;-87
2021/06/04 00:35:44;;;;;;;39.97;22.58;;;19.30;99.90;;;;;;4151234;28;20187;-91
2021/06/04 00:37:45;;;;;;;40.70;22.17;;;19.20;99.90;;;;;;4151084;28;20645;-88
2021/06/04 00:39:46;;;;;;;37.83;21.98;;;19.20;99.90;;;;;;4150990;28;20166;-88
2021/06/04 00:42:00;;;;;;;38.10;21.70;;;19.00;99.90;;;;;;4150965;28;20196;-87
2021/06/04 00:44:04;;;;;;;38.15;21.73;;;19.00;99.90;;;;;;4151407;28;20636;-88
2021/06/04 00:46:07;;;;;;;34.80;22.63;;;19.10;99.90;;;;;;4151217;28;20750;-91
2021/06/04 00:48:09;;;;;;;35.25;22.10;;;19.30;99.90;;;;;;4151279;28;20235;-88
2021/06/04 00:50:19;;;;;;;39.53;22.35;;;19.10;99.90;;;;;;4151390;28;20560;-87
2021/06/04 00:52:27;;;;;;;33.83;22.13;;;19.50;99.90;;;;;;4151369;28;20661;-87
2021/06/04 00:54:29;;;;;;;38.70;21.77;;;19.20;99.90;;;;;;4167136;28;20172;-86
2021/06/04 00:56:33;;;;;;;34.40;21.35;;;19.10;99.90;;;;;;4167166;28;20206;-87
2021/06/04 00:58:39;;;;;;;37.72;21.20;;;19.60;99.90;;;;;;4150761;28;20621;-88
2021/06/04 01:00:44;;;;;;;41.40;21.63;;;19.90;99.90;;;;;;4150948;28;20179;-87
2021/06/04 01:02:45;;;;;;;31.88;20.88;;;19.90;99.90;;;;;;4167039;28;20714;-87
2021/06/04 01:04:46;;;;;;;38.15;19.83;;;19.40;99.90;;;;;;4150765;28;20165;-87
2021/06/04 01:07:34;;;;;;;32.30;19.85;;;19.40;99.90;;;;;;4150659;28;20215;-93
2021/06/04 01:10:06;;;;;;;36.45;21.75;;;19.90;99.90;;;;;;4134594;28;20272;-88
2021/06/04 01:13:03;;;;;;;36.50;20.77;;;20.00;99.90;;;;;;4151079;28;20192;-88
2021/06/04 01:15:28;;;;;;;39.70;20.20;;;19.30;99.90;;;;;;4085859;28;20172;-87
2021/06/04 01:17:54;;;;;;;31.40;20.42;;;18.90;99.90;;;;;;4138121;28;20185;-88
2021/06/04 01:20:06;;;;;;;38.65;20.38;;;18.60;99.90;;;;;;4150490;28;20169;-87
2021/06/04 01:22:13;;;;;;;33.72;20.73;;;18.60;99.90;;;;;;4150477;28;20204;-90
2021/06/04 01:24:54;;;;;;;37.42;20.25;;;18.70;99.90;;;;;;4166751;28;20174;-88
2021/06/04 01:27:09;;;;;;;36.45;19.30;;;18.70;99.90;;;;;;4150248;28;20189;-87
2021/06/04 01:29:15;;;;;;;36.80;21.23;;;18.70;99.90;;;;;;4166735;28;20186;-87
2021/06/04 01:31:28;;;;;;;39.10;20.67;;;18.70;99.90;;;;;;4150272;28;20266;-88
2021/06/04 01:33:37;;;;;;;30.75;19.98;;;18.90;99.90;;;;;;4150397;28;20235;-88
2021/06/04 01:35:44;;;;;;;35.10;20.35;;;18.90;99.90;;;;;;4166568;28;20188;-88
2021/06/04 01:37:48;;;;;;;33.15;19.30;;;18.70;99.90;;;;;;4166791;28;20226;-87
2021/06/04 01:39:57;;;;;;;36.88;21.38;;;18.90;99.90;;;;;;4150386;28;20748;-87
2021/06/04 01:42:04;;;;;;;35.58;19.45;;;19.10;99.90;;;;;;4182286;23;20216;-84
2021/06/04 01:44:17;;;;;;;36.97;20.48;;;19.50;99.90;;;;;;4165805;28;20234;-84
2021/06/04 01:46:24;;;;;;;35.60;19.85;;;19.40;99.90;;;;;;4165762;28;20219;-84
2021/06/04 01:48:33;;;;;;;35.03;22.23;;;19.50;99.90;;;;;;4165819;28;20179;-83
2021/06/04 01:50:56;;;;;;;34.83;19.80;;;19.80;99.90;;;;;;4165797;28;20164;-85
2021/06/04 01:53:07;;;;;;;44.95;20.50;;;20.20;99.90;;;;;;4133462;28;20200;-84
2021/06/04 01:55:16;;;;;;;43.78;19.92;;;20.20;99.90;;;;;;4150454;28;20175;-83
2021/06/04 01:57:26;;;;;;;38.55;19.65;;;20.00;99.90;;;;;;4133086;28;20180;-84
2021/06/04 01:59:41;;;;;;;37.58;20.40;;;19.60;99.90;;;;;;4149183;28;20278;-84
2021/06/04 02:01:52;;;;;;;39.10;19.85;;;19.00;99.90;;;;;;4149118;28;20181;-84
2021/06/04 02:03:54;;;;;;;35.30;19.60;;;18.50;99.90;;;;;;4133433;28;20181;-84
2021/06/04 02:06:01;;;;;;;34.47;19.50;;;18.30;99.90;;;;;;4149307;28;20219;-84
2021/06/04 02:08:10;;;;;;;32.05;19.80;;;18.20;99.90;;;;;;4133451;28;20717;-84
2021/06/04 02:10:21;;;;;;;32.33;18.67;;;18.30;99.90;;;;;;4132801;28;20174;-84
2021/06/04 02:12:24;;;;;;;36.42;19.88;;;18.40;99.90;;;;;;4132852;28;20635;-84
2021/06/04 02:14:46;;;;;;;28.92;19.05;;;18.30;99.90;;;;;;4149013;28;20176;-84
2021/06/04 02:17:13;;;;;;;33.35;18.55;;;18.20;99.90;;;;;;4133944;28;20182;-84
2021/06/04 02:19:40;;;;;;;30.05;18.38;;;17.90;99.90;;;;;;4149030;28;20235;-85
2021/06/04 02:22:06;;;;;;;33.78;19.58;;;17.80;99.90;;;;;;4148897;28;20193;-84
2021/06/04 02:24:14;;;;;;;38.20;20.25;;;17.70;99.90;;;;;;4150017;28;20204;-84
2021/06/04 02:26:21;;;;;;;32.95;19.60;;;17.60;99.90;;;;;;4148931;28;20208;-84
2021/06/04 02:28:29;;;;;;;35.70;20.70;;;17.80;99.90;;;;;;4148890;28;20172;-84
2021/06/04 02:30:42;;;;;;;33.53;20.38;;;17.90;99.90;;;;;;4148691;28;20239;-84
2021/06/04 02:32:48;;;;;;;40.35;20.98;;;18.00;99.90;;;;;;4132500;28;20252;-84
2021/06/04 02:35:15;;;;;;;31.95;20.42;;;17.90;99.90;;;;;;4148855;28;20235;-84
2021/06/04 02:37:23;;;;;;;33.40;20.33;;;18.00;99.90;;;;;;4147733;28;20195;-84
2021/06/04 02:39:38;;;;;;;31.80;20.98;;;18.00;99.90;;;;;;4132383;28;20174;-84
2021/06/04 02:41:47;;;;;;;35.47;21.38;;;18.10;99.90;;;;;;4149631;28;20280;-85
2021/06/04 02:43:53;;;;;;;37.25;20.98;;;18.10;99.90;;;;;;4132253;28;20188;-84
2021/06/04 02:46:03;;;;;;;32.67;20.75;;;17.90;99.90;;;;;;4149716;28;20283;-84
2021/06/04 02:48:25;;;;;;;37.50;20.80;;;17.90;99.90;;;;;;4148576;28;20164;-84
2021/06/04 02:50:44;;;;;;;32.15;19.60;;;17.80;99.90;;;;;;4132326;28;20228;-84
2021/06/04 02:52:46;;;;;;;36.13;21.42;;;17.80;99.90;;;;;;4148313;28;20220;-84
2021/06/04 02:54:50;;;;;;;33.33;20.10;;;17.80;99.90;;;;;;4148489;28;20165;-84
2021/06/04 02:56:58;;;;;;;36.05;20.60;;;17.80;99.90;;;;;;4148370;28;20176;-84
2021/06/04 02:59:39;;;;;;;33.92;20.90;;;17.80;99.90;;;;;;4142700;28;20177;-85
2021/06/04 03:01:50;;;;;;;35.17;19.83;;;17.80;99.90;;;;;;4083697;29;20290;-84
2021/06/04 03:03:52;;;;;;;35.35;20.38;;;17.60;99.90;;;;;;4099627;28;20226;-84
2021/06/04 03:05:54;;;;;;;32.55;19.33;;;17.30;99.90;;;;;;4117221;28;20571;-84
2021/06/04 03:07:56;;;;;;;38.33;20.08;;;17.20;99.90;;;;;;4131933;28;20192;-84
2021/06/04 03:09:59;;;;;;;35.53;19.60;;;16.90;99.90;;;;;;4148442;28;20169;-84
2021/06/04 03:12:04;;;;;;;37.15;20.83;;;16.90;99.90;;;;;;4149272;28;20207;-84
2021/06/04 03:14:07;;;;;;;41.55;21.83;;;16.60;99.90;;;;;;4131987;28;20180;-84
2021/06/04 03:16:14;;;;;;;39.95;21.95;;;16.50;99.90;;;;;;4148363;28;20177;-84
2021/06/04 03:18:30;;;;;;;41.03;21.52;;;16.50;99.90;;;;;;4148472;28;20192;-84
2021/06/04 03:20:38;;;;;;;38.28;22.98;;;16.60;99.90;;;;;;4147948;28;20264;-84
2021/06/04 03:22:41;;;;;;;36.22;21.92;;;16.80;99.90;;;;;;4148125;28;20211;-84
2021/06/04 03:24:44;;;;;;;37.63;22.40;;;16.70;99.90;;;;;;4131784;28;20625;-84
2021/06/04 03:26:48;;;;;;;40.78;22.77;;;16.40;99.90;;;;;;4148518;28;20175;-84
2021/06/04 03:28:52;;;;;;;42.83;24.75;;;16.40;99.90;;;;;;4131840;28;20217;-84
2021/06/04 03:30:55;;;;;;;42.40;24.23;;;16.50;99.90;;;;;;4131951;28;20669;-83
2021/06/04 03:32:57;;;;;;;41.00;24.77;;;16.70;99.90;;;;;;4147996;28;20173;-85
2021/06/04 03:34:57;;;;;;;45.83;25.30;;;16.80;99.90;;;;;;4148168;28;20259;-84
2021/06/04 03:37:01;;;;;;;52.22;24.58;;;17.00;99.90;;;;;;4131728;28;20178;-85
2021/06/04 03:39:06;;;;;;;45.58;25.02;;;17.10;99.90;;;;;;4148021;28;20172;-84
2021/06/04 03:41:11;;;;;;;38.55;23.90;;;17.20;99.90;;;;;;4131634;28;20183;-85
2021/06/04 03:43:19;;;;;;;36.63;23.10;;;17.20;99.90;;;;;;4149085;28;20176;-84
2021/06/04 03:45:30;;;;;;;36.83;23.02;;;17.20;99.90;;;;;;4147606;28;20216;-84
2021/06/04 03:47:32;;;;;;;37.70;22.83;;;17.20;99.90;;;;;;4149213;28;20161;-85
2021/06/04 03:49:32;;;;;;;38.33;22.25;;;17.20;99.90;;;;;;4131281;28;20173;-85
2021/06/04 03:51:38;;;;;;;39.70;22.77;;;17.30;99.90;;;;;;4148856;28;20660;-84
2021/06/04 03:53:39;;;;;;;41.05;23.83;;;17.40;99.90;;;;;;4148983;28;20168;-85
2021/06/04 03:55:41;;;;;;;42.13;23.27;;;17.30;99.90;;;;;;4147681;28;20563;-85
2021/06/04 03:57:42;;;;;;;41.72;22.33;;;17.20;99.90;;;;;;4147747;28;20220;-84
2021/06/04 03:59:46;;;;;;;35.50;21.33;;;17.30;99.90;;;;;;4148730;28;20630;-84
2021/06/04 04:01:54;;;;;;;42.13;22.45;;;17.20;99.90;;;;;;4147727;28;20247;-85
2021/06/04 04:03:56;;;;;;;43.83;24.13;;;17.20;99.90;;;;;;4147478;28;20208;-85
2021/06/04 04:05:56;;;;;;;42.13;23.95;;;17.50;99.90;;;;;;4131075;28;20241;-84
2021/06/04 04:07:57;;;;;;;37.65;22.42;;;18.10;99.90;;;;;;4147702;28;20215;-84
2021/06/04 04:09:58;;;;;;;36.88;22.33;;;18.10;99.90;;;;;;4131532;28;20174;-85
2021/06/04 04:11:59;;;;;;;35.60;21.55;;;18.00;99.90;;;;;;4131480;28;20196;-85
2021/06/04 04:14:00;;;;;;;34.55;22.50;;;18.00;99.90;;;;;;4147422;28;20264;-85
2021/06/04 04:16:01;;;;;;;35.80;21.83;;;17.80;99.90;;;;;;4131377;28;20177;-85
2021/06/04 04:18:03;;;;;;;38.88;22.20;;;17.80;99.90;;;;;;4147682;28;20188;-84
2021/06/04 04:20:04;;;;;;;37.72;22.38;;;17.80;99.90;;;;;;4131168;28;20177;-84
2021/06/04 04:22:06;;;;;;;38.30;22.65;;;17.80;99.90;;;;;;4147525;28;20204;-84
2021/06/04 04:24:15;;;;;;;34.47;22.27;;;17.90;99.90;;;;;;4131759;28;20189;-85
2021/06/04 04:26:23;;;;;;;34.00;20.98;;;18.00;99.90;;;;;;4131038;28;20701;-85
2021/06/04 04:28:29;;;;;;;35.63;20.95;;;18.00;99.90;;;;;;4131115;28;20173;-85
2021/06/04 04:30:32;;;;;;;28.33;20.23;;;18.00;99.90;;;;;;4131261;28;20177;-85
2021/06/04 04:32:32;;;;;;;32.25;20.60;;;18.00;99.90;;;;;;4147408;28;20203;-85
2021/06/04 04:34:33;;;;;;;35.72;21.98;;;18.10;99.90;;;;;;4131329;28;20181;-85
2021/06/04 04:36:42;;;;;;;40.83;23.05;;;18.20;99.90;;;;;;4131427;28;20212;-92
2021/06/04 04:38:43;;;;;;;32.63;21.17;;;18.30;99.90;;;;;;4147435;28;20183;-85
2021/06/04 04:40:44;;;;;;;34.95;20.77;;;18.30;99.90;;;;;;4131023;28;20645;-85
2021/06/04 04:42:45;;;;;;;36.47;21.00;;;18.40;99.90;;;;;;4131146;28;20209;-85
2021/06/04 04:44:47;;;;;;;34.63;21.70;;;18.60;99.90;;;;;;4147269;28;20203;-84
2021/06/04 04:46:48;;;;;;;32.78;21.88;;;18.70;99.90;;;;;;4147647;28;20173;-84
2021/06/04 04:48:49;;;;;;;37.67;22.27;;;18.80;99.90;;;;;;4131243;28;20166;-85
2021/06/04 04:50:50;;;;;;;33.38;21.95;;;18.90;99.90;;;;;;4131235;28;20174;-85
2021/06/04 04:52:51;;;;;;;38.70;21.55;;;18.90;99.90;;;;;;4147160;28;20192;-85
2021/06/04 04:54:54;;;;;;;31.35;21.05;;;19.10;99.90;;;;;;4147203;28;20630;-84
2021/06/04 04:56:55;;;;;;;34.20;20.65;;;19.20;99.90;;;;;;4130912;28;20634;-85
2021/06/04 04:58:56;;;;;;;32.03;20.70;;;19.30;99.90;;;;;;4147217;28;20173;-85
2021/06/04 05:00:57;;;;;;;33.15;19.63;;;19.50;99.90;;;;;;4147585;28;20545;-85
2021/06/04 05:02:58;;;;;;;35.20;21.10;;;19.70;99.90;;;;;;4150280;28;20258;-85
2021/06/04 05:04:59;;;;;;;35.72;20.38;;;19.80;99.90;;;;;;4133913;28;20255;-86
2021/06/04 05:07:00;;;;;;;36.25;20.48;;;19.80;99.90;;;;;;4150267;28;20668;-85
2021/06/04 05:09:00;;;;;;;35.03;19.83;;;19.80;99.90;;;;;;4133786;28;20633;-85
2021/06/04 05:11:03;;;;;;;32.30;20.95;;;19.90;99.90;;;;;;4166453;28;20638;-85
2021/06/04 05:13:06;;;;;;;37.22;21.35;;;20.00;99.90;;;;;;4133677;28;20714;-85
2021/06/04 05:15:14;;;;;;;37.55;20.98;;;20.00;99.90;;;;;;4150039;28;20166;-85
2021/06/04 05:17:16;;;;;;;35.97;20.70;;;20.40;99.90;;;;;;4133846;28;20173;-85
2021/06/04 05:19:17;;;;;;;35.35;21.40;;;20.20;99.90;;;;;;4149623;28;20259;-84
2021/06/04 05:21:18;;;;;;;47.13;23.42;;;20.40;99.90;;;;;;4133571;28;20198;-91
2021/06/04 05:23:20;;;;;;;46.35;21.85;;;20.40;99.90;;;;;;4133577;28;20162;-84
2021/06/04 05:25:24;;;;;;;39.97;22.58;;;20.90;99.90;;;;;;4149915;28;20204;-84
2021/06/04 05:27:25;;;;;;;39.40;22.63;;;21.40;99.90;;;;;;4149841;28;20759;-85
2021/06/04 05:29:26;;;;;;;41.00;22.30;;;21.70;99.90;;;;;;4150207;28;20211;-85
2021/06/04 05:31:27;;;;;;;43.15;23.35;;;21.50;99.90;;;;;;4134076;28;20228;-86
2021/06/04 05:33:33;;;;;;;49.63;23.23;;;21.50;99.90;;;;;;4134029;28;20222;-86
2021/06/04 05:35:34;;;;;;;43.25;22.27;;;21.20;99.90;;;;;;4149908;28;20242;-86
2021/06/04 05:37:35;;;;;;;39.53;23.25;;;21.20;99.90;;;;;;4150060;28;20264;-86
2021/06/04 05:39:36;;;;;;;39.53;23.00;;;21.20;99.90;;;;;;4133916;28;20169;-86
2021/06/04 05:41:40;;;;;;;36.92;22.63;;;20.80;99.90;;;;;;4133726;28;20216;-90
2021/06/04 05:43:42;;;;;;;40.38;23.08;;;21.00;99.90;;;;;;4133662;28;20184;-86
2021/06/04 05:45:45;;;;;;;41.97;23.10;;;21.20;99.90;;;;;;4133490;28;20589;-86
2021/06/04 05:47:47;;;;;;;45.05;24.42;;;21.30;99.90;;;;;;4149840;28;20216;-88
2021/06/04 05:49:47;;;;;;;40.35;24.77;;;21.00;99.90;;;;;;4133413;28;20225;-85
2021/06/04 05:51:50;;;;;;;45.17;24.75;;;20.80;99.90;;;;;;4149347;28;20288;-85
2021/06/04 05:53:51;;;;;;;44.40;25.65;;;20.40;99.90;;;;;;4149599;28;20337;-90
2021/06/04 05:55:51;;;;;;;47.92;25.20;;;20.00;99.90;;;;;;4133431;28;20524;-86
2021/06/04 05:57:53;;;;;;;40.10;22.75;;;19.80;99.90;;;;;;4149536;28;20284;-85
2021/06/04 05:59:54;;;;;;;44.03;23.17;;;20.00;99.90;;;;;;4133394;28;20173;-85
2021/06/04 06:01:55;;;;;;;38.88;21.08;;;20.20;99.90;;;;;;4133285;28;20252;-85
2021/06/04 06:03:56;;;;;;;38.35;21.33;;;20.40;99.90;;;;;;4149471;28;20173;-85
2021/06/04 06:05:58;;;;;;;38.92;21.38;;;20.30;99.90;;;;;;4132963;28;20653;-85
2021/06/04 06:07:58;;;;;;;37.63;21.48;;;20.20;99.90;;;;;;4149230;28;20173;-85
2021/06/04 06:09:59;;;;;;;45.95;22.00;;;20.30;99.90;;;;;;4133149;28;20166;-86
2021/06/04 06:12:00;;;;;;;38.28;21.88;;;20.30;99.90;;;;;;4149163;28;20205;-85
2021/06/04 06:14:02;;;;;;;41.75;22.75;;;20.30;99.90;;;;;;4133075;28;20182;-85
2021/06/04 06:16:03;;;;;;;45.88;22.00;;;20.30;99.90;;;;;;4133242;28;20177;-85
2021/06/04 06:18:06;;;;;;;37.15;21.15;;;20.40;99.90;;;;;;4149207;28;20719;-85
2021/06/04 06:20:12;;;;;;;53.17;23.55;;;20.40;99.90;;;;;;4133258;28;20716;-85
2021/06/04 06:22:12;;;;;;;37.42;22.83;;;20.60;99.90;;;;;;4133066;28;20197;-85
2021/06/04 06:24:14;;;;;;;37.05;21.67;;;20.60;99.90;;;;;;4133036;28;20252;-90
2021/06/04 06:26:22;;;;;;;44.70;24.17;;;20.60;99.90;;;;;;4133106;28;20209;-85
2021/06/04 06:28:33;;;;;;;38.88;22.17;;;20.50;99.90;;;;;;4133202;28;20269;-85
2021/06/04 06:30:34;;;;;;;46.75;23.13;;;20.50;99.90;;;;;;4149272;28;20169;-85
2021/06/04 06:32:35;;;;;;;39.00;22.40;;;20.60;99.90;;;;;;4132778;28;20201;-89
2021/06/04 06:34:36;;;;;;;43.75;22.17;;;20.80;99.90;;;;;;4149180;28;20177;-85
2021/06/04 06:36:40;;;;;;;45.15;23.08;;;21.00;99.90;;;;;;4133289;28;20693;-90
2021/06/04 06:38:41;;;;;;;45.03;22.83;;;21.10;99.90;;;;;;4133115;28;20170;-88
2021/06/04 06:40:43;;;;;;;38.70;22.75;;;21.20;99.90;;;;;;4149124;28;20207;-86
2021/06/04 06:42:43;;;;;;;42.13;23.48;;;21.10;99.90;;;;;;4149034;28;20205;-85
2021/06/04 06:44:44;;;;;;;37.50;20.80;;;21.00;99.90;;;;;;4148886;28;20177;-86
2021/06/04 06:46:46;;;;;;;41.08;21.80;;;20.80;99.90;;;;;;4132627;28;20201;-86
2021/06/04 06:48:47;;;;;;;34.78;19.48;;;20.70;99.90;;;;;;4133001;28;20256;-88
2021/06/04 06:50:48;;;;;;;38.95;21.00;;;20.70;99.90;;;;;;4132860;28;20169;-89
2021/06/04 06:52:50;;;;;;;47.17;21.65;;;20.70;99.90;;;;;;4149038;28;20201;-87
2021/06/04 06:54:50;;;;;;;34.13;19.15;;;20.70;99.90;;;;;;4148920;28;20169;-85
2021/06/04 06:56:53;;;;;;;44.10;20.20;;;20.60;99.90;;;;;;4132944;28;20279;-90
2021/06/04 06:58:54;;;;;;;36.17;19.48;;;20.60;99.90;;;;;;4132744;28;20213;-90
2021/06/04 07:00:55;;;;;;;36.35;19.35;;;20.80;99.90;;;;;;4132914;28;20208;-89
2021/06/04 07:02:57;;;;;;;36.67;19.52;;;20.80;99.90;;;;;;4132645;28;20178;-88
2021/06/04 07:04:58;;;;;;;30.17;18.13;;;21.00;99.90;;;;;;4148857;28;20180;-89
2021/06/04 07:06:59;;;;;;;29.70;18.27;;;21.20;99.90;;;;;;4149949;28;20703;-91
2021/06/04 07:09:00;;;;;;;38.75;19.30;;;21.40;99.90;;;;;;4149064;28;20172;-89
2021/06/04 07:11:02;;;;;;;29.88;18.00;;;21.60;99.90;;;;;;4132439;28;20177;-85
2021/06/04 07:13:09;;;;;;;33.90;18.52;;;22.20;99.90;;;;;;4148301;28;20173;-86
2021/06/04 07:15:14;;;;;;;35.80;18.33;;;23.10;99.90;;;;;;4132137;28;20181;-85
2021/06/04 07:17:15;;;;;;;35.78;18.13;;;23.90;99.90;;;;;;4148604;28;20537;-85
2021/06/04 07:19:16;;;;;;;30.05;16.27;;;24.60;99.90;;;;;;4148615;28;20256;-86
2021/06/04 07:21:20;;;;;;;29.92;16.10;;;25.30;99.90;;;;;;4132293;28;20223;-85
2021/06/04 07:23:23;;;;;;;31.15;15.77;;;25.70;99.90;;;;;;4132045;28;20161;-89
2021/06/04 07:25:27;;;;;;;32.20;14.93;;;26.50;99.90;;;;;;4148295;28;20208;-89
2021/06/04 07:27:27;;;;;;;21.90;11.77;;;26.90;99.90;;;;;;4132566;28;20199;-90
2021/06/04 07:29:29;;;;;;;28.35;12.30;;;27.20;99.90;;;;;;4148762;28;20169;-90
2021/06/04 07:31:30;;;;;;;23.23;12.00;;;27.20;99.90;;;;;;4132507;28;20189;-91
2021/06/04 07:33:35;;;;;;;22.65;11.73;;;27.50;99.90;;;;;;4148576;28;20180;-92
2021/06/04 07:35:37;;;;;;;24.60;11.82;;;27.60;99.90;;;;;;4132438;28;20526;-90
2021/06/04 07:37:37;;;;;;;18.50;10.35;;;27.90;99.90;;;;;;4132368;28;20181;-91
2021/06/04 07:39:38;;;;;;;18.35;10.35;;;28.20;99.90;;;;;;4148628;28;20177;-88
2021/06/04 07:41:40;;;;;;;17.52;10.43;;;28.50;99.90;;;;;;4132831;28;20666;-90
2021/06/04 07:43:44;;;;;;;22.98;11.38;;;28.50;99.90;;;;;;4148394;28;20177;-91
2021/06/04 07:45:46;;;;;;;25.42;13.02;;;28.40;99.90;;;;;;4132109;28;20288;-91
2021/06/04 07:47:46;;;;;;;25.10;13.23;;;28.30;99.90;;;;;;4132208;28;20712;-91
2021/06/04 07:49:48;;;;;;;19.52;11.10;;;27.90;99.90;;;;;;4131890;28;20185;-89
2021/06/04 07:51:52;;;;;;;20.05;11.50;;;28.50;99.90;;;;;;4148374;28;20195;-90
2021/06/04 07:53:53;;;;;;;20.15;11.73;;;28.60;99.90;;;;;;4148345;28;20212;-91
2021/06/04 07:55:54;;;;;;;18.75;10.80;;;28.10;99.90;;;;;;4132517;28;20254;-89
2021/06/04 07:57:54;;;;;;;17.67;10.18;;;28.40;99.90;;;;;;4132121;28;20189;-89
2021/06/04 07:59:55;;;;;;;19.23;9.57;;;28.60;99.90;;;;;;4148097;28;20177;-89
2021/06/04 08:01:56;;;;;;;18.50;10.75;;;28.80;99.90;;;;;;4131850;28;20259;-91
2021/06/04 08:03:58;;;;;;;23.40;10.35;;;29.40;99.90;;;;;;4132006;28;20177;-89
2021/06/04 08:06:00;;;;;;;22.30;10.50;;;29.30;99.90;;;;;;4132048;28;20276;-90
2021/06/04 08:08:02;;;;;;;21.05;11.00;;;29.10;99.90;;;;;;4132226;28;20197;-90
2021/06/04 08:10:05;;;;;;;20.13;11.10;;;29.70;99.90;;;;;;4148441;28;20172;-91
2021/06/04 08:12:06;;;;;;;18.80;11.20;;;29.40;99.90;;;;;;4132273;28;20221;-90
2021/06/04 08:14:12;;;;;;;18.90;10.57;;;29.90;99.90;;;;;;4132011;28;20177;-89
2021/06/04 08:16:13;;;;;;;21.67;11.75;;;30.10;99.90;;;;;;4148278;28;20181;-89
2021/06/04 08:18:19;;;;;;;20.60;11.30;;;29.70;99.90;;;;;;4131719;28;20268;-89
2021/06/04 08:20:24;;;;;;;22.73;11.93;;;28.90;99.90;;;;;;4131868;28;20522;-90
2021/06/04 08:22:24;;;;;;;20.52;11.75;;;29.30;99.90;;;;;;4131752;28;20240;-90
2021/06/04 08:24:31;;;;;;;24.55;12.25;;;29.70;99.90;;;;;;4131820;28;20228;-89
2021/06/04 08:26:33;;;;;;;17.98;11.43;;;30.30;99.90;;;;;;4147957;28;20200;-89
2021/06/04 08:28:35;;;;;;;25.98;11.70;;;30.20;99.90;;;;;;4147927;28;20177;-91
2021/06/04 08:30:37;;;;;;;21.55;12.07;;;30.00;99.90;;;;;;4131904;28;20652;-91
2021/06/04 08:32:38;;;;;;;21.88;12.95;;;30.80;99.90;;;;;;4148080;28;20282;-90
2021/06/04 08:34:39;;;;;;;21.75;13.23;;;29.80;99.90;;;;;;4132003;28;20371;-90
2021/06/04 08:36:43;;;;;;;19.83;13.85;;;29.40;99.90;;;;;;4133716;28;20165;-90
2021/06/04 08:38:44;;;;;;;24.25;13.10;;;29.80;99.90;;;;;;4151141;28;20173;-89
2021/06/04 08:40:46;;;;;;;22.55;13.80;;;29.60;99.90;;;;;;4135150;28;20232;-90
2021/06/04 08:43:28;;;;;;;27.80;15.27;;;29.30;99.90;;;;;;4134976;28;20205;-91
2021/06/04 08:45:38;;;;;;;25.75;14.63;;;28.80;99.90;;;;;;4149304;28;20287;-89
2021/06/04 08:47:45;;;;;;;29.90;15.60;;;28.40;99.90;;;;;;4160820;28;20185;-92
2021/06/04 08:50:09;;;;;;;26.20;16.05;;;28.90;99.90;;;;;;4151516;28;20185;-93
2021/06/04 08:52:34;;;;;;;23.50;15.18;;;29.00;99.90;;;;;;4134065;28;20189;-94
2021/06/04 08:55:08;;;;;;;23.13;14.38;;;29.10;99.90;;;;;;4125669;28;20170;-94
2021/06/04 08:57:14;;;;;;;27.17;14.32;;;29.30;99.90;;;;;;4119090;28;20241;-95
2021/06/04 08:59:18;;;;;;;34.00;14.45;;;29.60;99.90;;;;;;4127705;28;20212;-96
2021/06/04 09:01:25;;;;;;;21.40;14.80;;;29.90;99.90;;;;;;4151549;28;20306;-94
2021/06/04 09:03:37;;;;;;;32.47;15.85;;;29.60;99.90;;;;;;4135351;28;20196;-94
2021/06/04 09:05:44;;;;;;;31.67;14.40;;;29.20;99.90;;;;;;4151165;28;20688;-94
2021/06/04 09:07:49;;;;;;;25.50;14.20;;;28.80;99.90;;;;;;4133979;28;20170;-93
2021/06/04 09:10:12;;;;;;;26.38;13.80;;;28.20;99.90;;;;;;4145855;28;20181;-94
2021/06/04 09:12:50;;;;;;;29.17;14.65;;;28.60;99.90;;;;;;4134750;28;20193;-93
2021/06/04 09:14:52;;;;;;;25.17;13.93;;;28.40;99.90;;;;;;4120408;28;20185;-94
2021/06/04 09:16:53;;;;;;;30.42;13.80;;;29.40;99.90;;;;;;4134656;28;20174;-92
2021/06/04 09:19:10;;;;;;;23.13;13.88;;;29.20;99.90;;;;;;4151034;28;20184;-94
2021/06/04 09:21:21;;;;;;;22.77;15.32;;;29.20;99.90;;;;;;4135108;28;20677;-94
2021/06/04 09:23:27;;;;;;;27.27;14.38;;;28.80;99.90;;;;;;4134826;28;20252;-94
2021/06/04 09:25:34;;;;;;;25.20;15.10;;;28.40;99.90;;;;;;4134767;28;20182;-95
2021/06/04 09:27:40;;;;;;;27.20;15.25;;;28.50;99.90;;;;;;4134896;28;20263;-94
2021/06/04 09:29:41;;;;;;;27.27;13.98;;;28.20;99.90;;;;;;4133804;28;20174;-96
2021/06/04 09:31:50;;;;;;;28.35;17.40;;;28.20;99.90;;;;;;4134046;28;20292;-95
2021/06/04 09:34:11;;;;;;;24.95;14.80;;;28.60;99.90;;;;;;4134036;28;20221;-94
2021/06/04 09:36:16;;;;;;;26.83;16.02;;;28.80;99.90;;;;;;4124411;28;20249;-92
2021/06/04 09:38:25;;;;;;;25.65;15.65;;;29.30;99.90;;;;;;4134576;28;20192;-95
2021/06/04 09:40:30;;;;;;;24.65;14.50;;;29.80;99.90;;;;;;4134512;28;20204;-96
2021/06/04 09:42:33;;;;;;;24.00;15.25;;;30.10;99.90;;;;;;4133951;28;20197;-96
2021/06/04 09:44:37;;;;;;;29.67;15.25;;;29.80;99.90;;;;;;4121408;28;20174;-96
2021/06/04 09:46:59;;;;;;;26.58;15.50;;;30.10;99.90;;;;;;4134858;28;20253;-95
2021/06/04 09:49:01;;;;;;;27.92;15.27;;;30.50;99.90;;;;;;4135163;28;20705;-96
2021/06/04 09:51:27;;;;;;;22.02;13.57;;;31.50;99.90;;;;;;4152348;28;20648;-96
2021/06/04 09:53:28;;;;;;;28.05;15.68;;;31.40;99.90;;;;;;4134281;28;20174;-95
2021/06/04 09:55:31;;;;;;;27.23;15.98;;;31.50;99.90;;;;;;4152059;28;20211;-94
2021/06/04 09:57:33;;;;;;;25.27;14.05;;;31.30;99.90;;;;;;4151302;28;20181;-94
2021/06/04 09:59:35;;;;;;;25.77;14.95;;;30.90;99.90;;;;;;4134798;28;20170;-94
2021/06/04 10:01:48;;;;;;;21.98;14.25;;;30.70;99.90;;;;;;4134146;28;20209;-96
2021/06/04 10:03:58;;;;;;;20.00;16.00;;;29.50;99.90;;;;;;4127802;28;20166;-96
2021/06/04 10:06:05;;;;;;;24.30;14.75;;;29.30;99.90;;;;;;4117880;28;20217;-95
2021/06/04 10:08:23;;;;;;;24.38;13.60;;;28.70;99.90;;;;;;4134343;28;20173;-96
2021/06/04 10:10:30;;;;;;;22.65;12.50;;;29.50;99.90;;;;;;4118570;28;20192;-96
2021/06/04 10:12:34;;;;;;;20.75;12.68;;;30.60;99.90;;;;;;4119011;28;20579;-95
2021/06/04 10:18:55;;;;;;;21.38;12.73;;;31.00;99.90;;;;;;4134960;28;20162;-96
2021/06/04 10:21:24;;;;;;;30.52;13.82;;;30.70;99.90;;;;;;4154754;28;20643;-95
2021/06/04 10:23:40;;;;;;;22.42;13.45;;;31.10;99.90;;;;;;4127930;28;20185;-95
2021/06/04 10:25:55;;;;;;;27.88;15.35;;;30.90;99.90;;;;;;4125040;28;20185;-95
2021/06/04 10:27:57;;;;;;;20.23;13.02;;;30.50;99.90;;;;;;4137504;28;20235;-95
2021/06/04 10:30:09;;;;;;;24.48;14.95;;;29.80;99.90;;;;;;4120760;28;20277;-93
2021/06/04 10:32:17;;;;;;;24.77;16.73;;;29.60;99.90;;;;;;4121472;28;20202;-95
2021/06/04 10:34:42;;;;;;;28.05;17.92;;;28.70;99.90;;;;;;4146433;28;20220;-95
2021/06/04 10:36:47;;;;;;;33.10;16.70;;;28.50;99.90;;;;;;4136210;28;20236;-96
2021/06/04 10:38:55;;;;;;;30.38;18.77;;;28.10;99.90;;;;;;4136606;28;20244;-94
2021/06/04 10:41:06;;;;;;;24.67;17.33;;;27.60;99.90;;;;;;4136847;28;20240;-95
2021/06/04 10:43:30;;;;;;;25.30;17.45;;;27.40;99.90;;;;;;4133663;28;20263;-95
2021/06/04 10:45:35;;;;;;;26.30;16.70;;;27.50;99.90;;;;;;4133690;28;20257;-96